RJOT(METAR)
05/24 15:00
METAR RJOT 240600Z 24009KT 210V270 9999 FEW040 30/07 Q1012 RMK
1CU040 A2990=
戻る
トップページへ戻る
IMOC Co,.Ltd.